sensor_id;sensor_type;location;lat;lon;timestamp;temperature;humidity
7046;DHT22;3564;53.326;10.356;2023-04-24T00:00:34;17.20;98.10
7046;DHT22;3564;53.326;10.356;2023-04-24T00:03:01;17.10;98.10
7046;DHT22;3564;53.326;10.356;2023-04-24T00:05:28;17.10;98.20
7046;DHT22;3564;53.326;10.356;2023-04-24T00:07:54;17.10;98.40
7046;DHT22;3564;53.326;10.356;2023-04-24T00:10:20;17.10;98.40
7046;DHT22;3564;53.326;10.356;2023-04-24T00:12:46;17.10;98.50
7046;DHT22;3564;53.326;10.356;2023-04-24T00:15:11;17.10;98.40
7046;DHT22;3564;53.326;10.356;2023-04-24T00:17:37;17.10;98.40
7046;DHT22;3564;53.326;10.356;2023-04-24T00:20:06;17.10;98.40
7046;DHT22;3564;53.326;10.356;2023-04-24T00:22:32;17.10;98.30
7046;DHT22;3564;53.326;10.356;2023-04-24T00:24:58;17.10;98.30
7046;DHT22;3564;53.326;10.356;2023-04-24T00:27:26;17.10;98.30
7046;DHT22;3564;53.326;10.356;2023-04-24T00:29:52;17.00;98.20
7046;DHT22;3564;53.326;10.356;2023-04-24T00:32:20;17.00;98.30
7046;DHT22;3564;53.326;10.356;2023-04-24T00:34:46;17.00;98.40
7046;DHT22;3564;53.326;10.356;2023-04-24T00:37:11;17.00;98.30
7046;DHT22;3564;53.326;10.356;2023-04-24T00:39:37;17.00;98.30
7046;DHT22;3564;53.326;10.356;2023-04-24T00:42:03;17.00;98.30
7046;DHT22;3564;53.326;10.356;2023-04-24T00:44:30;17.00;98.40
7046;DHT22;3564;53.326;10.356;2023-04-24T00:46:56;17.00;98.40
7046;DHT22;3564;53.326;10.356;2023-04-24T00:49:23;16.90;98.30
7046;DHT22;3564;53.326;10.356;2023-04-24T00:51:49;16.90;98.20
7046;DHT22;3564;53.326;10.356;2023-04-24T00:54:17;16.90;98.20
7046;DHT22;3564;53.326;10.356;2023-04-24T00:56:43;16.90;98.30
7046;DHT22;3564;53.326;10.356;2023-04-24T00:59:10;16.90;98.40
7046;DHT22;3564;53.326;10.356;2023-04-24T01:01:35;16.90;98.50
7046;DHT22;3564;53.326;10.356;2023-04-24T01:04:11;16.90;98.60
7046;DHT22;3564;53.326;10.356;2023-04-24T01:06:39;16.90;98.50
7046;DHT22;3564;53.326;10.356;2023-04-24T01:09:05;16.90;98.50
7046;DHT22;3564;53.326;10.356;2023-04-24T01:11:33;16.90;98.30
7046;DHT22;3564;53.326;10.356;2023-04-24T01:14:02;16.90;98.30
7046;DHT22;3564;53.326;10.356;2023-04-24T01:16:27;16.90;98.20
7046;DHT22;3564;53.326;10.356;2023-04-24T01:18:53;16.80;98.20
7046;DHT22;3564;53.326;10.356;2023-04-24T01:21:21;16.80;98.20
7046;DHT22;3564;53.326;10.356;2023-04-24T01:23:47;16.80;98.00
7046;DHT22;3564;53.326;10.356;2023-04-24T01:26:14;16.80;97.90
7046;DHT22;3564;53.326;10.356;2023-04-24T01:28:40;16.80;97.90
7046;DHT22;3564;53.326;10.356;2023-04-24T01:31:08;16.80;97.60
7046;DHT22;3564;53.326;10.356;2023-04-24T01:33:34;16.70;97.50
7046;DHT22;3564;53.326;10.356;2023-04-24T01:36:00;16.70;97.50
7046;DHT22;3564;53.326;10.356;2023-04-24T01:38:26;16.70;97.20
7046;DHT22;3564;53.326;10.356;2023-04-24T01:40:54;16.60;97.30
7046;DHT22;3564;53.326;10.356;2023-04-24T01:43:26;16.60;97.30
7046;DHT22;3564;53.326;10.356;2023-04-24T01:45:52;16.60;97.50
7046;DHT22;3564;53.326;10.356;2023-04-24T01:48:17;16.60;97.40
7046;DHT22;3564;53.326;10.356;2023-04-24T01:50:43;16.50;97.40
7046;DHT22;3564;53.326;10.356;2023-04-24T01:53:12;16.50;97.30
7046;DHT22;3564;53.326;10.356;2023-04-24T01:55:37;16.50;97.00
7046;DHT22;3564;53.326;10.356;2023-04-24T01:58:03;16.50;97.20
7046;DHT22;3564;53.326;10.356;2023-04-24T02:00:28;16.40;97.10
7046;DHT22;3564;53.326;10.356;2023-04-24T02:02:54;16.40;97.00
7046;DHT22;3564;53.326;10.356;2023-04-24T02:05:20;16.40;96.90
7046;DHT22;3564;53.326;10.356;2023-04-24T02:07:48;16.30;96.90
7046;DHT22;3564;53.326;10.356;2023-04-24T02:10:14;16.30;96.80
7046;DHT22;3564;53.326;10.356;2023-04-24T02:12:39;16.30;97.10
7046;DHT22;3564;53.326;10.356;2023-04-24T02:15:05;16.30;96.80
7046;DHT22;3564;53.326;10.356;2023-04-24T02:17:31;16.20;96.70
7046;DHT22;3564;53.326;10.356;2023-04-24T02:20:07;16.20;96.50
7046;DHT22;3564;53.326;10.356;2023-04-24T02:22:35;16.20;96.70
7046;DHT22;3564;53.326;10.356;2023-04-24T02:25:01;16.20;96.40
7046;DHT22;3564;53.326;10.356;2023-04-24T02:27:27;16.20;96.30
7046;DHT22;3564;53.326;10.356;2023-04-24T02:29:52;16.20;96.40
7046;DHT22;3564;53.326;10.356;2023-04-24T02:32:18;16.20;96.40
7046;DHT22;3564;53.326;10.356;2023-04-24T02:34:43;16.20;96.40
7046;DHT22;3564;53.326;10.356;2023-04-24T02:37:09;16.20;96.50
7046;DHT22;3564;53.326;10.356;2023-04-24T02:39:35;16.10;96.40
7046;DHT22;3564;53.326;10.356;2023-04-24T02:42:00;16.20;96.40
7046;DHT22;3564;53.326;10.356;2023-04-24T02:44:26;16.10;96.40
7046;DHT22;3564;53.326;10.356;2023-04-24T02:46:52;16.10;96.50
7046;DHT22;3564;53.326;10.356;2023-04-24T02:49:18;16.10;96.50
7046;DHT22;3564;53.326;10.356;2023-04-24T02:51:43;16.10;96.40
7046;DHT22;3564;53.326;10.356;2023-04-24T02:54:09;16.10;96.50
7046;DHT22;3564;53.326;10.356;2023-04-24T02:56:40;16.00;96.50
7046;DHT22;3564;53.326;10.356;2023-04-24T02:59:09;16.00;96.40
7046;DHT22;3564;53.326;10.356;2023-04-24T03:01:38;15.90;96.50
7046;DHT22;3564;53.326;10.356;2023-04-24T03:04:04;15.90;96.50
7046;DHT22;3564;53.326;10.356;2023-04-24T03:06:29;15.80;96.50
7046;DHT22;3564;53.326;10.356;2023-04-24T03:08:56;15.80;96.40
7046;DHT22;3564;53.326;10.356;2023-04-24T03:11:25;15.80;96.20
7046;DHT22;3564;53.326;10.356;2023-04-24T03:13:50;15.70;96.30
7046;DHT22;3564;53.326;10.356;2023-04-24T03:16:16;15.60;95.90
7046;DHT22;3564;53.326;10.356;2023-04-24T03:18:41;15.70;96.00
7046;DHT22;3564;53.326;10.356;2023-04-24T03:21:07;15.60;95.70
7046;DHT22;3564;53.326;10.356;2023-04-24T03:23:35;15.60;96.10
7046;DHT22;3564;53.326;10.356;2023-04-24T03:26:01;15.60;95.80
7046;DHT22;3564;53.326;10.356;2023-04-24T03:28:27;15.60;95.70
7046;DHT22;3564;53.326;10.356;2023-04-24T03:30:53;15.60;95.50
7046;DHT22;3564;53.326;10.356;2023-04-24T03:33:18;15.60;95.60
7046;DHT22;3564;53.326;10.356;2023-04-24T03:35:44;15.60;95.40
7046;DHT22;3564;53.326;10.356;2023-04-24T03:38:13;15.50;95.10
7046;DHT22;3564;53.326;10.356;2023-04-24T03:40:38;15.50;95.00
7046;DHT22;3564;53.326;10.356;2023-04-24T03:43:04;15.50;94.90
7046;DHT22;3564;53.326;10.356;2023-04-24T03:45:29;15.40;94.90
7046;DHT22;3564;53.326;10.356;2023-04-24T03:47:55;15.40;94.70
7046;DHT22;3564;53.326;10.356;2023-04-24T03:50:20;15.40;94.70
7046;DHT22;3564;53.326;10.356;2023-04-24T03:52:49;15.30;94.60
7046;DHT22;3564;53.326;10.356;2023-04-24T03:55:15;15.30;94.50
7046;DHT22;3564;53.326;10.356;2023-04-24T03:57:41;15.30;94.40
7046;DHT22;3564;53.326;10.356;2023-04-24T04:00:07;15.30;94.40
7046;DHT22;3564;53.326;10.356;2023-04-24T04:02:35;15.30;94.30
7046;DHT22;3564;53.326;10.356;2023-04-24T04:05:01;15.20;94.30
7046;DHT22;3564;53.326;10.356;2023-04-24T04:07:30;15.20;94.20
7046;DHT22;3564;53.326;10.356;2023-04-24T04:09:55;15.20;94.00
7046;DHT22;3564;53.326;10.356;2023-04-24T04:12:21;15.10;94.00
7046;DHT22;3564;53.326;10.356;2023-04-24T04:14:46;15.10;93.90
7046;DHT22;3564;53.326;10.356;2023-04-24T04:17:12;15.10;93.90
7046;DHT22;3564;53.326;10.356;2023-04-24T04:19:38;15.10;93.90
7046;DHT22;3564;53.326;10.356;2023-04-24T04:22:06;15.10;93.90
7046;DHT22;3564;53.326;10.356;2023-04-24T04:24:33;15.10;94.10
7046;DHT22;3564;53.326;10.356;2023-04-24T04:27:06;15.10;93.80
7046;DHT22;3564;53.326;10.356;2023-04-24T04:29:35;15.10;93.80
7046;DHT22;3564;53.326;10.356;2023-04-24T04:32:01;15.10;94.00
7046;DHT22;3564;53.326;10.356;2023-04-24T04:34:27;15.10;94.10
7046;DHT22;3564;53.326;10.356;2023-04-24T04:36:53;15.10;94.10
7046;DHT22;3564;53.326;10.356;2023-04-24T04:39:21;15.10;93.90
7046;DHT22;3564;53.326;10.356;2023-04-24T04:41:47;15.10;93.70
7046;DHT22;3564;53.326;10.356;2023-04-24T04:44:14;15.00;93.70
7046;DHT22;3564;53.326;10.356;2023-04-24T04:46:40;15.00;94.00
7046;DHT22;3564;53.326;10.356;2023-04-24T04:49:06;15.00;93.90
7046;DHT22;3564;53.326;10.356;2023-04-24T04:51:36;14.90;93.90
7046;DHT22;3564;53.326;10.356;2023-04-24T04:54:08;14.90;93.80
7046;DHT22;3564;53.326;10.356;2023-04-24T04:56:36;14.90;93.90
7046;DHT22;3564;53.326;10.356;2023-04-24T04:59:02;14.90;94.10
7046;DHT22;3564;53.326;10.356;2023-04-24T05:01:27;14.90;94.10
7046;DHT22;3564;53.326;10.356;2023-04-24T05:03:53;14.90;94.10
7046;DHT22;3564;53.326;10.356;2023-04-24T05:06:19;14.90;94.10
7046;DHT22;3564;53.326;10.356;2023-04-24T05:08:44;14.90;94.10
7046;DHT22;3564;53.326;10.356;2023-04-24T05:11:10;14.90;94.10
7046;DHT22;3564;53.326;10.356;2023-04-24T05:13:35;14.90;94.10
7046;DHT22;3564;53.326;10.356;2023-04-24T05:16:01;15.00;94.20
7046;DHT22;3564;53.326;10.356;2023-04-24T05:18:26;15.00;94.00
7046;DHT22;3564;53.326;10.356;2023-04-24T05:20:55;15.00;94.10
7046;DHT22;3564;53.326;10.356;2023-04-24T05:23:21;15.00;94.10
7046;DHT22;3564;53.326;10.356;2023-04-24T05:25:49;15.00;94.10
7046;DHT22;3564;53.326;10.356;2023-04-24T05:28:15;15.00;94.10
7046;DHT22;3564;53.326;10.356;2023-04-24T05:30:43;15.10;94.00
7046;DHT22;3564;53.326;10.356;2023-04-24T05:33:09;15.10;94.10
7046;DHT22;3564;53.326;10.356;2023-04-24T05:35:35;15.10;94.00
7046;DHT22;3564;53.326;10.356;2023-04-24T05:38:00;15.20;94.10
7046;DHT22;3564;53.326;10.356;2023-04-24T05:40:26;15.20;94.10
7046;DHT22;3564;53.326;10.356;2023-04-24T05:42:52;15.20;94.10
7046;DHT22;3564;53.326;10.356;2023-04-24T05:45:17;15.20;94.10
7046;DHT22;3564;53.326;10.356;2023-04-24T05:47:43;15.30;94.20
7046;DHT22;3564;53.326;10.356;2023-04-24T05:50:10;15.30;94.10
7046;DHT22;3564;53.326;10.356;2023-04-24T05:52:35;15.30;93.90
7046;DHT22;3564;53.326;10.356;2023-04-24T05:55:02;15.30;93.80
7046;DHT22;3564;53.326;10.356;2023-04-24T05:57:28;15.20;93.60
7046;DHT22;3564;53.326;10.356;2023-04-24T05:59:53;15.20;93.70
7046;DHT22;3564;53.326;10.356;2023-04-24T06:02:22;15.20;93.70
7046;DHT22;3564;53.326;10.356;2023-04-24T06:04:48;15.20;93.70
7046;DHT22;3564;53.326;10.356;2023-04-24T06:07:13;15.20;93.70
7046;DHT22;3564;53.326;10.356;2023-04-24T06:09:39;15.20;93.60
7046;DHT22;3564;53.326;10.356;2023-04-24T06:12:04;15.20;93.40
7046;DHT22;3564;53.326;10.356;2023-04-24T06:14:30;15.20;93.40
7046;DHT22;3564;53.326;10.356;2023-04-24T06:16:55;15.20;93.30
7046;DHT22;3564;53.326;10.356;2023-04-24T06:19:24;15.20;93.30
7046;DHT22;3564;53.326;10.356;2023-04-24T06:21:49;15.30;93.30
7046;DHT22;3564;53.326;10.356;2023-04-24T06:24:15;15.30;93.20
7046;DHT22;3564;53.326;10.356;2023-04-24T06:26:44;15.30;93.10
7046;DHT22;3564;53.326;10.356;2023-04-24T06:29:13;15.30;93.10
7046;DHT22;3564;53.326;10.356;2023-04-24T06:31:42;15.30;93.20
7046;DHT22;3564;53.326;10.356;2023-04-24T06:34:07;15.30;93.10
7046;DHT22;3564;53.326;10.356;2023-04-24T06:36:33;15.40;93.00
7046;DHT22;3564;53.326;10.356;2023-04-24T06:39:01;15.40;93.10
7046;DHT22;3564;53.326;10.356;2023-04-24T06:41:27;15.40;92.80
7046;DHT22;3564;53.326;10.356;2023-04-24T06:43:53;15.50;92.70
7046;DHT22;3564;53.326;10.356;2023-04-24T06:46:22;15.40;92.30
7046;DHT22;3564;53.326;10.356;2023-04-24T06:48:49;15.40;92.50
7046;DHT22;3564;53.326;10.356;2023-04-24T06:51:15;15.30;92.40
7046;DHT22;3564;53.326;10.356;2023-04-24T06:53:42;15.40;92.50
7046;DHT22;3564;53.326;10.356;2023-04-24T06:56:08;15.40;92.60
7046;DHT22;3564;53.326;10.356;2023-04-24T06:58:34;15.40;92.60
7046;DHT22;3564;53.326;10.356;2023-04-24T07:01:02;15.50;92.90
7046;DHT22;3564;53.326;10.356;2023-04-24T07:03:28;15.50;92.30
7046;DHT22;3564;53.326;10.356;2023-04-24T07:05:54;15.60;92.20
7046;DHT22;3564;53.326;10.356;2023-04-24T07:08:20;15.60;92.30
7046;DHT22;3564;53.326;10.356;2023-04-24T07:10:47;15.60;92.20
7046;DHT22;3564;53.326;10.356;2023-04-24T07:13:15;15.60;92.20
7046;DHT22;3564;53.326;10.356;2023-04-24T07:15:41;15.60;92.00
7046;DHT22;3564;53.326;10.356;2023-04-24T07:18:06;15.70;92.10
7046;DHT22;3564;53.326;10.356;2023-04-24T07:20:32;15.70;91.90
7046;DHT22;3564;53.326;10.356;2023-04-24T07:22:58;15.80;91.90
7046;DHT22;3564;53.326;10.356;2023-04-24T07:25:24;15.90;92.10
7046;DHT22;3564;53.326;10.356;2023-04-24T07:27:49;15.90;91.50
7046;DHT22;3564;53.326;10.356;2023-04-24T07:30:15;15.90;91.00
7046;DHT22;3564;53.326;10.356;2023-04-24T07:32:41;15.90;91.30
7046;DHT22;3564;53.326;10.356;2023-04-24T07:35:09;16.00;91.20
7046;DHT22;3564;53.326;10.356;2023-04-24T07:37:36;16.00;91.10
7046;DHT22;3564;53.326;10.356;2023-04-24T07:40:02;16.00;91.30
7046;DHT22;3564;53.326;10.356;2023-04-24T07:42:28;16.00;90.80
7046;DHT22;3564;53.326;10.356;2023-04-24T07:44:55;16.00;90.80
7046;DHT22;3564;53.326;10.356;2023-04-24T07:47:21;16.00;90.70
7046;DHT22;3564;53.326;10.356;2023-04-24T07:49:46;16.00;90.60
7046;DHT22;3564;53.326;10.356;2023-04-24T07:52:12;16.10;90.70
7046;DHT22;3564;53.326;10.356;2023-04-24T07:54:38;16.10;90.90
7046;DHT22;3564;53.326;10.356;2023-04-24T07:57:03;16.10;90.50
7046;DHT22;3564;53.326;10.356;2023-04-24T07:59:35;16.10;90.50
7046;DHT22;3564;53.326;10.356;2023-04-24T08:02:01;16.00;90.60
7046;DHT22;3564;53.326;10.356;2023-04-24T08:04:29;16.10;90.50
7046;DHT22;3564;53.326;10.356;2023-04-24T08:06:55;16.10;91.10
7046;DHT22;3564;53.326;10.356;2023-04-24T08:09:21;16.10;90.40
7046;DHT22;3564;53.326;10.356;2023-04-24T08:11:46;16.10;90.20
7046;DHT22;3564;53.326;10.356;2023-04-24T08:14:12;16.10;90.40
7046;DHT22;3564;53.326;10.356;2023-04-24T08:16:38;16.10;90.20
7046;DHT22;3564;53.326;10.356;2023-04-24T08:19:04;16.20;90.30
7046;DHT22;3564;53.326;10.356;2023-04-24T08:21:29;16.20;90.70
7046;DHT22;3564;53.326;10.356;2023-04-24T08:23:58;16.20;90.70
7046;DHT22;3564;53.326;10.356;2023-04-24T08:26:24;16.20;90.30
7046;DHT22;3564;53.326;10.356;2023-04-24T08:28:50;16.30;90.50
7046;DHT22;3564;53.326;10.356;2023-04-24T08:31:15;16.40;90.90
7046;DHT22;3564;53.326;10.356;2023-04-24T08:33:41;16.50;90.90
7046;DHT22;3564;53.326;10.356;2023-04-24T08:36:07;16.50;89.90
7046;DHT22;3564;53.326;10.356;2023-04-24T08:38:33;16.50;90.20
7046;DHT22;3564;53.326;10.356;2023-04-24T08:41:05;16.50;90.40
7046;DHT22;3564;53.326;10.356;2023-04-24T08:43:33;16.50;90.20
7046;DHT22;3564;53.326;10.356;2023-04-24T08:46:03;16.50;89.90
7046;DHT22;3564;53.326;10.356;2023-04-24T08:48:32;16.50;89.20
7046;DHT22;3564;53.326;10.356;2023-04-24T08:50:59;16.50;90.00
7046;DHT22;3564;53.326;10.356;2023-04-24T08:53:25;16.50;90.00
7046;DHT22;3564;53.326;10.356;2023-04-24T08:55:51;16.40;89.40
7046;DHT22;3564;53.326;10.356;2023-04-24T08:58:18;16.30;88.90
7046;DHT22;3564;53.326;10.356;2023-04-24T09:00:45;16.20;90.10
7046;DHT22;3564;53.326;10.356;2023-04-24T09:03:13;16.20;90.30
7046;DHT22;3564;53.326;10.356;2023-04-24T09:05:42;16.30;90.20
7046;DHT22;3564;53.326;10.356;2023-04-24T09:08:11;16.30;90.10
7046;DHT22;3564;53.326;10.356;2023-04-24T09:10:40;16.30;90.30
7046;DHT22;3564;53.326;10.356;2023-04-24T09:13:05;16.30;90.50
7046;DHT22;3564;53.326;10.356;2023-04-24T09:15:34;16.40;90.30
7046;DHT22;3564;53.326;10.356;2023-04-24T09:18:01;16.40;90.80
7046;DHT22;3564;53.326;10.356;2023-04-24T09:20:29;16.40;90.70
7046;DHT22;3564;53.326;10.356;2023-04-24T09:22:57;16.30;90.20
7046;DHT22;3564;53.326;10.356;2023-04-24T09:25:32;16.20;90.30
7046;DHT22;3564;53.326;10.356;2023-04-24T09:28:01;16.20;90.50
7046;DHT22;3564;53.326;10.356;2023-04-24T09:30:28;16.20;90.60
7046;DHT22;3564;53.326;10.356;2023-04-24T09:33:15;16.20;90.90
7046;DHT22;3564;53.326;10.356;2023-04-24T09:35:42;16.40;91.10
7046;DHT22;3564;53.326;10.356;2023-04-24T09:38:10;16.40;90.00
7046;DHT22;3564;53.326;10.356;2023-04-24T09:40:36;16.50;89.40
7046;DHT22;3564;53.326;10.356;2023-04-24T09:43:02;16.60;89.20
7046;DHT22;3564;53.326;10.356;2023-04-24T09:45:35;16.60;89.10
7046;DHT22;3564;53.326;10.356;2023-04-24T09:48:01;16.60;89.70
7046;DHT22;3564;53.326;10.356;2023-04-24T09:50:27;16.60;90.20
7046;DHT22;3564;53.326;10.356;2023-04-24T09:53:05;16.70;90.00
7046;DHT22;3564;53.326;10.356;2023-04-24T09:55:39;16.80;90.30
7046;DHT22;3564;53.326;10.356;2023-04-24T09:58:04;17.00;90.10
7046;DHT22;3564;53.326;10.356;2023-04-24T10:00:35;17.10;88.60
7046;DHT22;3564;53.326;10.356;2023-04-24T10:03:03;17.00;87.90
7046;DHT22;3564;53.326;10.356;2023-04-24T10:05:33;17.00;87.90
7046;DHT22;3564;53.326;10.356;2023-04-24T10:08:08;17.00;88.10
7046;DHT22;3564;53.326;10.356;2023-04-24T10:10:36;17.00;88.40
7046;DHT22;3564;53.326;10.356;2023-04-24T10:13:04;16.90;88.80
7046;DHT22;3564;53.326;10.356;2023-04-24T10:15:30;17.00;89.20
7046;DHT22;3564;53.326;10.356;2023-04-24T10:17:59;17.00;88.40
7046;DHT22;3564;53.326;10.356;2023-04-24T10:20:28;17.00;87.90
7046;DHT22;3564;53.326;10.356;2023-04-24T10:22:56;17.00;87.80
7046;DHT22;3564;53.326;10.356;2023-04-24T10:25:24;16.90;87.00
7046;DHT22;3564;53.326;10.356;2023-04-24T10:27:51;17.00;88.20
7046;DHT22;3564;53.326;10.356;2023-04-24T10:30:19;17.00;86.70
7046;DHT22;3564;53.326;10.356;2023-04-24T10:32:45;17.10;86.90
7046;DHT22;3564;53.326;10.356;2023-04-24T10:35:13;17.10;87.20
7046;DHT22;3564;53.326;10.356;2023-04-24T10:37:58;17.20;87.50
7046;DHT22;3564;53.326;10.356;2023-04-24T10:40:32;17.30;87.40
7046;DHT22;3564;53.326;10.356;2023-04-24T10:42:58;17.30;86.10
7046;DHT22;3564;53.326;10.356;2023-04-24T10:45:25;17.30;85.90
7046;DHT22;3564;53.326;10.356;2023-04-24T10:48:02;17.20;86.40
7046;DHT22;3564;53.326;10.356;2023-04-24T10:50:29;17.20;86.20
7046;DHT22;3564;53.326;10.356;2023-04-24T10:53:06;17.10;87.00
7046;DHT22;3564;53.326;10.356;2023-04-24T10:55:48;17.10;86.40
7046;DHT22;3564;53.326;10.356;2023-04-24T10:58:14;17.10;86.10
7046;DHT22;3564;53.326;10.356;2023-04-24T11:00:42;17.10;85.80
7046;DHT22;3564;53.326;10.356;2023-04-24T11:03:26;17.20;86.10
7046;DHT22;3564;53.326;10.356;2023-04-24T11:06:08;17.20;85.50
7046;DHT22;3564;53.326;10.356;2023-04-24T11:08:45;17.20;86.60
7046;DHT22;3564;53.326;10.356;2023-04-24T11:11:13;17.30;85.80
7046;DHT22;3564;53.326;10.356;2023-04-24T11:16:28;17.30;84.70
7046;DHT22;3564;53.326;10.356;2023-04-24T11:19:02;17.20;84.80
7046;DHT22;3564;53.326;10.356;2023-04-24T11:21:41;17.20;86.20
7046;DHT22;3564;53.326;10.356;2023-04-24T11:24:23;17.20;86.20
7046;DHT22;3564;53.326;10.356;2023-04-24T11:26:51;17.20;83.40
7046;DHT22;3564;53.326;10.356;2023-04-24T11:29:20;17.10;83.20
7046;DHT22;3564;53.326;10.356;2023-04-24T11:31:49;17.10;83.80
7046;DHT22;3564;53.326;10.356;2023-04-24T11:34:17;17.10;83.40
7046;DHT22;3564;53.326;10.356;2023-04-24T11:36:44;17.10;83.80
7046;DHT22;3564;53.326;10.356;2023-04-24T11:39:10;17.20;83.50
7046;DHT22;3564;53.326;10.356;2023-04-24T11:41:37;17.20;82.60
7046;DHT22;3564;53.326;10.356;2023-04-24T11:44:05;17.30;81.20
7046;DHT22;3564;53.326;10.356;2023-04-24T11:46:31;17.40;82.10
7046;DHT22;3564;53.326;10.356;2023-04-24T11:49:00;17.50;82.40
7046;DHT22;3564;53.326;10.356;2023-04-24T11:51:27;17.50;81.20
7046;DHT22;3564;53.326;10.356;2023-04-24T11:53:54;17.50;81.50
7046;DHT22;3564;53.326;10.356;2023-04-24T11:56:21;17.50;80.90
7046;DHT22;3564;53.326;10.356;2023-04-24T11:58:47;17.50;81.80
7046;DHT22;3564;53.326;10.356;2023-04-24T12:01:13;17.50;81.40
7046;DHT22;3564;53.326;10.356;2023-04-24T12:03:39;17.50;82.40
7046;DHT22;3564;53.326;10.356;2023-04-24T12:06:06;17.50;80.90
7046;DHT22;3564;53.326;10.356;2023-04-24T12:08:33;17.40;80.50
7046;DHT22;3564;53.326;10.356;2023-04-24T12:11:03;17.40;80.70
7046;DHT22;3564;53.326;10.356;2023-04-24T12:13:30;17.40;81.20
7046;DHT22;3564;53.326;10.356;2023-04-24T12:15:59;17.40;82.50
7046;DHT22;3564;53.326;10.356;2023-04-24T12:18:26;17.50;82.60
7046;DHT22;3564;53.326;10.356;2023-04-24T12:20:51;17.50;82.50
7046;DHT22;3564;53.326;10.356;2023-04-24T12:23:33;17.60;82.60
7046;DHT22;3564;53.326;10.356;2023-04-24T12:26:03;17.60;82.60
7046;DHT22;3564;53.326;10.356;2023-04-24T12:28:35;17.70;82.10
7046;DHT22;3564;53.326;10.356;2023-04-24T12:31:01;17.70;82.00
7046;DHT22;3564;53.326;10.356;2023-04-24T12:33:33;17.80;82.80
7046;DHT22;3564;53.326;10.356;2023-04-24T12:36:00;17.80;82.10
7046;DHT22;3564;53.326;10.356;2023-04-24T12:38:29;17.90;81.70
7046;DHT22;3564;53.326;10.356;2023-04-24T12:41:22;17.90;81.40
7046;DHT22;3564;53.326;10.356;2023-04-24T12:43:54;17.90;82.50
7046;DHT22;3564;53.326;10.356;2023-04-24T12:46:20;17.90;82.30
7046;DHT22;3564;53.326;10.356;2023-04-24T12:48:48;17.90;83.40
7046;DHT22;3564;53.326;10.356;2023-04-24T12:51:14;17.90;81.90
7046;DHT22;3564;53.326;10.356;2023-04-24T12:53:40;17.90;81.40
7046;DHT22;3564;53.326;10.356;2023-04-24T12:56:05;17.70;81.10
7046;DHT22;3564;53.326;10.356;2023-04-24T12:58:31;17.60;81.60
7046;DHT22;3564;53.326;10.356;2023-04-24T13:00:56;17.40;82.00
7046;DHT22;3564;53.326;10.356;2023-04-24T13:03:22;17.20;82.10
7046;DHT22;3564;53.326;10.356;2023-04-24T13:05:48;17.10;82.30
7046;DHT22;3564;53.326;10.356;2023-04-24T13:08:13;17.00;82.50
7046;DHT22;3564;53.326;10.356;2023-04-24T13:10:39;17.00;82.70
7046;DHT22;3564;53.326;10.356;2023-04-24T13:13:06;16.90;83.40
7046;DHT22;3564;53.326;10.356;2023-04-24T13:15:31;16.90;83.50
7046;DHT22;3564;53.326;10.356;2023-04-24T13:17:57;16.80;84.10
7046;DHT22;3564;53.326;10.356;2023-04-24T13:20:25;16.70;84.60
7046;DHT22;3564;53.326;10.356;2023-04-24T13:22:51;16.60;85.20
7046;DHT22;3564;53.326;10.356;2023-04-24T13:25:20;16.60;84.90
7046;DHT22;3564;53.326;10.356;2023-04-24T13:27:46;16.50;84.60
7046;DHT22;3564;53.326;10.356;2023-04-24T13:30:12;16.40;84.80
7046;DHT22;3564;53.326;10.356;2023-04-24T13:32:38;16.30;85.00
7046;DHT22;3564;53.326;10.356;2023-04-24T13:35:04;16.30;85.30
7046;DHT22;3564;53.326;10.356;2023-04-24T13:37:29;16.30;85.90
7046;DHT22;3564;53.326;10.356;2023-04-24T13:39:55;16.30;85.50
7046;DHT22;3564;53.326;10.356;2023-04-24T13:42:23;16.30;85.50
7046;DHT22;3564;53.326;10.356;2023-04-24T13:44:49;16.30;85.30
7046;DHT22;3564;53.326;10.356;2023-04-24T13:47:16;16.30;85.10
7046;DHT22;3564;53.326;10.356;2023-04-24T13:49:41;16.40;84.90
7046;DHT22;3564;53.326;10.356;2023-04-24T13:52:07;16.40;85.00
7046;DHT22;3564;53.326;10.356;2023-04-24T13:54:32;16.50;85.70
7046;DHT22;3564;53.326;10.356;2023-04-24T13:57:01;16.60;85.40
7046;DHT22;3564;53.326;10.356;2023-04-24T13:59:28;16.70;84.60
7046;DHT22;3564;53.326;10.356;2023-04-24T14:01:53;16.70;84.30
7046;DHT22;3564;53.326;10.356;2023-04-24T14:04:20;16.80;84.40
7046;DHT22;3564;53.326;10.356;2023-04-24T14:06:45;16.80;84.00
7046;DHT22;3564;53.326;10.356;2023-04-24T14:09:11;16.70;83.50
7046;DHT22;3564;53.326;10.356;2023-04-24T14:11:39;16.70;83.50
7046;DHT22;3564;53.326;10.356;2023-04-24T14:14:08;16.60;83.60
7046;DHT22;3564;53.326;10.356;2023-04-24T14:16:34;16.60;84.40
7046;DHT22;3564;53.326;10.356;2023-04-24T14:19:00;16.50;84.50
7046;DHT22;3564;53.326;10.356;2023-04-24T14:21:26;16.50;84.60
7046;DHT22;3564;53.326;10.356;2023-04-24T14:23:51;16.40;84.60
7046;DHT22;3564;53.326;10.356;2023-04-24T14:26:17;16.30;85.20
7046;DHT22;3564;53.326;10.356;2023-04-24T14:28:42;16.20;85.30
7046;DHT22;3564;53.326;10.356;2023-04-24T14:31:08;16.20;85.70
7046;DHT22;3564;53.326;10.356;2023-04-24T14:33:34;16.10;85.80
7046;DHT22;3564;53.326;10.356;2023-04-24T14:36:00;16.00;86.20
7046;DHT22;3564;53.326;10.356;2023-04-24T14:38:27;15.90;86.60
7046;DHT22;3564;53.326;10.356;2023-04-24T14:40:53;15.80;87.30
7046;DHT22;3564;53.326;10.356;2023-04-24T14:43:18;15.90;87.40
7046;DHT22;3564;53.326;10.356;2023-04-24T14:45:44;15.90;87.70
7046;DHT22;3564;53.326;10.356;2023-04-24T14:48:10;16.00;88.20
7046;DHT22;3564;53.326;10.356;2023-04-24T14:50:39;16.00;87.40
7046;DHT22;3564;53.326;10.356;2023-04-24T14:53:05;16.00;88.00
7046;DHT22;3564;53.326;10.356;2023-04-24T14:55:30;15.90;87.20
7046;DHT22;3564;53.326;10.356;2023-04-24T14:57:57;15.80;87.80
7046;DHT22;3564;53.326;10.356;2023-04-24T15:00:25;15.80;88.40
7046;DHT22;3564;53.326;10.356;2023-04-24T15:02:51;15.70;88.60
7046;DHT22;3564;53.326;10.356;2023-04-24T15:05:16;15.70;88.30
7046;DHT22;3564;53.326;10.356;2023-04-24T15:07:45;15.60;88.60
7046;DHT22;3564;53.326;10.356;2023-04-24T15:10:10;15.60;88.70
7046;DHT22;3564;53.326;10.356;2023-04-24T15:12:36;15.60;89.90
7046;DHT22;3564;53.326;10.356;2023-04-24T15:15:05;15.50;90.30
7046;DHT22;3564;53.326;10.356;2023-04-24T15:17:34;15.40;90.60
7046;DHT22;3564;53.326;10.356;2023-04-24T15:20:00;15.30;91.10
7046;DHT22;3564;53.326;10.356;2023-04-24T15:22:26;15.20;91.40
7046;DHT22;3564;53.326;10.356;2023-04-24T15:24:52;15.20;91.80
7046;DHT22;3564;53.326;10.356;2023-04-24T15:27:18;15.10;92.00
7046;DHT22;3564;53.326;10.356;2023-04-24T15:29:43;15.10;92.20
7046;DHT22;3564;53.326;10.356;2023-04-24T15:32:09;15.10;92.30
7046;DHT22;3564;53.326;10.356;2023-04-24T15:34:35;15.00;92.40
7046;DHT22;3564;53.326;10.356;2023-04-24T15:37:00;15.00;92.70
7046;DHT22;3564;53.326;10.356;2023-04-24T15:39:29;15.00;93.10
7046;DHT22;3564;53.326;10.356;2023-04-24T15:41:55;15.00;93.70
7046;DHT22;3564;53.326;10.356;2023-04-24T15:44:22;14.90;94.30
7046;DHT22;3564;53.326;10.356;2023-04-24T15:46:50;14.90;94.90